sensor_id;sensor_type;location;lat;lon;timestamp;temperature;humidity
1948;DHT22;974;52.400;9.818;2023-08-20T00:00:10;21.90;99.90
1948;DHT22;974;52.400;9.818;2023-08-20T00:02:37;21.90;99.90
1948;DHT22;974;52.400;9.818;2023-08-20T00:05:03;21.90;99.90
1948;DHT22;974;52.400;9.818;2023-08-20T00:07:30;21.90;99.90
1948;DHT22;974;52.400;9.818;2023-08-20T00:09:56;21.80;99.90
1948;DHT22;974;52.400;9.818;2023-08-20T00:12:21;21.80;99.90
1948;DHT22;974;52.400;9.818;2023-08-20T00:14:58;21.80;99.90
1948;DHT22;974;52.400;9.818;2023-08-20T00:17:30;21.80;99.90
1948;DHT22;974;52.400;9.818;2023-08-20T00:19:56;21.80;99.90
1948;DHT22;974;52.400;9.818;2023-08-20T00:22:22;21.80;99.90
1948;DHT22;974;52.400;9.818;2023-08-20T00:24:49;21.70;99.90
1948;DHT22;974;52.400;9.818;2023-08-20T00:27:15;21.70;99.90
1948;DHT22;974;52.400;9.818;2023-08-20T00:29:40;21.70;99.90
1948;DHT22;974;52.400;9.818;2023-08-20T00:32:06;21.70;99.90
1948;DHT22;974;52.400;9.818;2023-08-20T00:34:31;21.70;99.90
1948;DHT22;974;52.400;9.818;2023-08-20T00:36:57;21.60;99.90
1948;DHT22;974;52.400;9.818;2023-08-20T00:39:22;21.60;99.90
1948;DHT22;974;52.400;9.818;2023-08-20T00:41:48;21.60;99.90
1948;DHT22;974;52.400;9.818;2023-08-20T00:44:13;21.60;99.90
1948;DHT22;974;52.400;9.818;2023-08-20T00:46:39;21.60;99.90
1948;DHT22;974;52.400;9.818;2023-08-20T00:49:05;21.60;99.90
1948;DHT22;974;52.400;9.818;2023-08-20T00:51:32;21.50;99.90
1948;DHT22;974;52.400;9.818;2023-08-20T00:53:59;21.50;99.90
1948;DHT22;974;52.400;9.818;2023-08-20T00:56:25;21.50;99.90
1948;DHT22;974;52.400;9.818;2023-08-20T00:58:52;21.50;99.90
1948;DHT22;974;52.400;9.818;2023-08-20T01:01:18;21.40;99.90
1948;DHT22;974;52.400;9.818;2023-08-20T01:03:43;21.40;99.90
1948;DHT22;974;52.400;9.818;2023-08-20T01:08:58;21.20;99.90
1948;DHT22;974;52.400;9.818;2023-08-20T01:11:30;21.20;99.90
1948;DHT22;974;52.400;9.818;2023-08-20T01:13:59;21.20;99.90
1948;DHT22;974;52.400;9.818;2023-08-20T01:16:24;21.10;99.90
1948;DHT22;974;52.400;9.818;2023-08-20T01:18:50;21.10;99.90
1948;DHT22;974;52.400;9.818;2023-08-20T01:21:39;21.10;99.90
1948;DHT22;974;52.400;9.818;2023-08-20T01:24:22;21.00;99.90
1948;DHT22;974;52.400;9.818;2023-08-20T01:29:18;20.90;99.90
1948;DHT22;974;52.400;9.818;2023-08-20T01:31:44;20.90;99.90
1948;DHT22;974;52.400;9.818;2023-08-20T01:34:10;20.90;99.90
1948;DHT22;974;52.400;9.818;2023-08-20T01:36:37;20.80;99.90
1948;DHT22;974;52.400;9.818;2023-08-20T01:39:03;20.80;99.90
1948;DHT22;974;52.400;9.818;2023-08-20T01:41:30;20.80;99.90
1948;DHT22;974;52.400;9.818;2023-08-20T01:43:56;20.70;99.90
1948;DHT22;974;52.400;9.818;2023-08-20T01:46:21;20.70;99.90
1948;DHT22;974;52.400;9.818;2023-08-20T01:48:47;20.60;99.90
1948;DHT22;974;52.400;9.818;2023-08-20T01:51:12;20.60;99.90
1948;DHT22;974;52.400;9.818;2023-08-20T01:53:38;20.50;99.90
1948;DHT22;974;52.400;9.818;2023-08-20T01:56:03;20.50;99.90
1948;DHT22;974;52.400;9.818;2023-08-20T01:58:29;20.40;99.90
1948;DHT22;974;52.400;9.818;2023-08-20T02:00:56;20.30;99.90
1948;DHT22;974;52.400;9.818;2023-08-20T02:03:21;20.30;99.90
1948;DHT22;974;52.400;9.818;2023-08-20T02:05:47;20.20;99.90
1948;DHT22;974;52.400;9.818;2023-08-20T02:08:12;20.20;99.90
1948;DHT22;974;52.400;9.818;2023-08-20T02:10:38;20.10;99.90
1948;DHT22;974;52.400;9.818;2023-08-20T02:13:03;20.00;99.90
1948;DHT22;974;52.400;9.818;2023-08-20T02:15:29;20.00;99.90
1948;DHT22;974;52.400;9.818;2023-08-20T02:17:56;19.90;99.90
1948;DHT22;974;52.400;9.818;2023-08-20T02:20:21;19.90;99.90
1948;DHT22;974;52.400;9.818;2023-08-20T02:22:48;19.80;99.90
1948;DHT22;974;52.400;9.818;2023-08-20T02:25:13;19.70;99.90
1948;DHT22;974;52.400;9.818;2023-08-20T02:27:39;19.70;99.90
1948;DHT22;974;52.400;9.818;2023-08-20T02:30:05;19.70;99.90
1948;DHT22;974;52.400;9.818;2023-08-20T02:32:30;19.60;99.90
1948;DHT22;974;52.400;9.818;2023-08-20T02:34:58;19.60;99.90
1948;DHT22;974;52.400;9.818;2023-08-20T02:37:24;19.50;99.90
1948;DHT22;974;52.400;9.818;2023-08-20T02:39:49;19.50;99.90
1948;DHT22;974;52.400;9.818;2023-08-20T02:42:15;19.40;99.90
1948;DHT22;974;52.400;9.818;2023-08-20T02:44:40;19.40;99.90
1948;DHT22;974;52.400;9.818;2023-08-20T02:47:06;19.40;99.90
1948;DHT22;974;52.400;9.818;2023-08-20T02:49:31;19.40;99.90
1948;DHT22;974;52.400;9.818;2023-08-20T02:51:57;19.40;99.90
1948;DHT22;974;52.400;9.818;2023-08-20T02:54:22;19.40;99.90
1948;DHT22;974;52.400;9.818;2023-08-20T02:56:48;19.40;99.90
1948;DHT22;974;52.400;9.818;2023-08-20T02:59:13;19.40;99.90
1948;DHT22;974;52.400;9.818;2023-08-20T03:01:39;19.40;99.90
1948;DHT22;974;52.400;9.818;2023-08-20T03:04:05;19.40;99.90
1948;DHT22;974;52.400;9.818;2023-08-20T03:06:30;19.40;99.90
1948;DHT22;974;52.400;9.818;2023-08-20T03:08:56;19.30;99.90
1948;DHT22;974;52.400;9.818;2023-08-20T03:11:21;19.30;99.90
1948;DHT22;974;52.400;9.818;2023-08-20T03:13:47;19.30;99.90
1948;DHT22;974;52.400;9.818;2023-08-20T03:16:12;19.30;99.90
1948;DHT22;974;52.400;9.818;2023-08-20T03:18:38;19.20;99.90
1948;DHT22;974;52.400;9.818;2023-08-20T03:21:03;19.20;99.90
1948;DHT22;974;52.400;9.818;2023-08-20T03:23:29;19.20;99.90
1948;DHT22;974;52.400;9.818;2023-08-20T03:25:57;19.20;99.90
1948;DHT22;974;52.400;9.818;2023-08-20T03:28:24;19.20;99.90
1948;DHT22;974;52.400;9.818;2023-08-20T03:30:49;19.20;99.90
1948;DHT22;974;52.400;9.818;2023-08-20T03:33:15;19.20;99.90
1948;DHT22;974;52.400;9.818;2023-08-20T03:35:42;19.10;99.90
1948;DHT22;974;52.400;9.818;2023-08-20T03:38:07;19.10;99.90
1948;DHT22;974;52.400;9.818;2023-08-20T03:40:33;19.10;99.90
1948;DHT22;974;52.400;9.818;2023-08-20T03:42:58;19.10;99.90
1948;DHT22;974;52.400;9.818;2023-08-20T03:45:24;19.10;99.90
1948;DHT22;974;52.400;9.818;2023-08-20T03:47:49;19.00;99.90
1948;DHT22;974;52.400;9.818;2023-08-20T03:50:15;19.00;99.90
1948;DHT22;974;52.400;9.818;2023-08-20T03:52:40;19.00;99.90
1948;DHT22;974;52.400;9.818;2023-08-20T03:55:06;19.00;99.90
1948;DHT22;974;52.400;9.818;2023-08-20T03:57:32;19.00;99.90
1948;DHT22;974;52.400;9.818;2023-08-20T03:59:57;18.90;99.90
1948;DHT22;974;52.400;9.818;2023-08-20T04:02:23;18.90;99.90
1948;DHT22;974;52.400;9.818;2023-08-20T04:04:49;18.90;99.90
1948;DHT22;974;52.400;9.818;2023-08-20T04:07:14;18.80;99.90
1948;DHT22;974;52.400;9.818;2023-08-20T04:09:40;18.80;99.90
1948;DHT22;974;52.400;9.818;2023-08-20T04:12:08;18.80;99.90
1948;DHT22;974;52.400;9.818;2023-08-20T04:14:33;18.80;99.90
1948;DHT22;974;52.400;9.818;2023-08-20T04:16:59;18.80;99.90
1948;DHT22;974;52.400;9.818;2023-08-20T04:19:24;18.80;99.90
1948;DHT22;974;52.400;9.818;2023-08-20T04:21:50;18.80;99.90
1948;DHT22;974;52.400;9.818;2023-08-20T04:24:16;18.80;99.90
1948;DHT22;974;52.400;9.818;2023-08-20T04:26:42;18.80;99.90
1948;DHT22;974;52.400;9.818;2023-08-20T04:29:09;18.80;99.90
1948;DHT22;974;52.400;9.818;2023-08-20T04:31:34;18.70;99.90
1948;DHT22;974;52.400;9.818;2023-08-20T04:34:00;18.70;99.90
1948;DHT22;974;52.400;9.818;2023-08-20T04:36:25;18.80;99.90
1948;DHT22;974;52.400;9.818;2023-08-20T04:38:51;18.80;99.90
1948;DHT22;974;52.400;9.818;2023-08-20T04:41:16;18.80;99.90
1948;DHT22;974;52.400;9.818;2023-08-20T04:43:42;18.80;99.90
1948;DHT22;974;52.400;9.818;2023-08-20T04:46:07;18.70;99.90
1948;DHT22;974;52.400;9.818;2023-08-20T04:48:33;18.70;99.90
1948;DHT22;974;52.400;9.818;2023-08-20T04:50:59;18.70;99.90
1948;DHT22;974;52.400;9.818;2023-08-20T04:53:25;18.70;99.90
1948;DHT22;974;52.400;9.818;2023-08-20T04:55:51;18.70;99.90
1948;DHT22;974;52.400;9.818;2023-08-20T04:58:16;18.70;99.90
1948;DHT22;974;52.400;9.818;2023-08-20T05:00:42;18.70;99.90
1948;DHT22;974;52.400;9.818;2023-08-20T05:03:08;18.70;99.90
1948;DHT22;974;52.400;9.818;2023-08-20T05:05:33;18.70;99.90
1948;DHT22;974;52.400;9.818;2023-08-20T05:07:59;18.70;99.90
1948;DHT22;974;52.400;9.818;2023-08-20T05:10:24;18.80;99.90
1948;DHT22;974;52.400;9.818;2023-08-20T05:12:50;18.80;99.90
1948;DHT22;974;52.400;9.818;2023-08-20T05:15:16;18.80;99.90
1948;DHT22;974;52.400;9.818;2023-08-20T05:17:41;18.90;99.90
1948;DHT22;974;52.400;9.818;2023-08-20T05:20:07;18.90;99.90
1948;DHT22;974;52.400;9.818;2023-08-20T05:22:34;19.00;99.90
1948;DHT22;974;52.400;9.818;2023-08-20T05:24:59;19.00;99.90
1948;DHT22;974;52.400;9.818;2023-08-20T05:27:25;19.10;99.90
1948;DHT22;974;52.400;9.818;2023-08-20T05:29:50;19.10;99.90
1948;DHT22;974;52.400;9.818;2023-08-20T05:32:16;19.20;99.90
1948;DHT22;974;52.400;9.818;2023-08-20T05:34:42;19.20;99.90
1948;DHT22;974;52.400;9.818;2023-08-20T05:37:07;19.30;99.90
1948;DHT22;974;52.400;9.818;2023-08-20T05:39:40;19.30;99.90
1948;DHT22;974;52.400;9.818;2023-08-20T05:42:06;19.30;99.90
1948;DHT22;974;52.400;9.818;2023-08-20T05:44:32;19.30;99.90
1948;DHT22;974;52.400;9.818;2023-08-20T05:46:57;19.30;99.90
1948;DHT22;974;52.400;9.818;2023-08-20T05:49:23;19.40;99.90
1948;DHT22;974;52.400;9.818;2023-08-20T05:51:48;19.40;99.90
1948;DHT22;974;52.400;9.818;2023-08-20T05:54:14;19.50;99.90
1948;DHT22;974;52.400;9.818;2023-08-20T05:56:39;19.50;99.90
1948;DHT22;974;52.400;9.818;2023-08-20T05:59:05;19.50;99.90
1948;DHT22;974;52.400;9.818;2023-08-20T06:01:31;19.50;99.90
1948;DHT22;974;52.400;9.818;2023-08-20T06:03:56;19.50;99.90
1948;DHT22;974;52.400;9.818;2023-08-20T06:06:22;19.50;99.90
1948;DHT22;974;52.400;9.818;2023-08-20T06:08:48;19.50;99.90
1948;DHT22;974;52.400;9.818;2023-08-20T06:11:13;19.50;99.90
1948;DHT22;974;52.400;9.818;2023-08-20T06:13:39;19.60;99.90
1948;DHT22;974;52.400;9.818;2023-08-20T06:16:04;19.60;99.90
1948;DHT22;974;52.400;9.818;2023-08-20T06:18:30;19.60;99.90
1948;DHT22;974;52.400;9.818;2023-08-20T06:20:55;19.60;99.90
1948;DHT22;974;52.400;9.818;2023-08-20T06:23:21;19.70;99.90
1948;DHT22;974;52.400;9.818;2023-08-20T06:25:46;19.70;99.90
1948;DHT22;974;52.400;9.818;2023-08-20T06:28:12;19.70;99.90
1948;DHT22;974;52.400;9.818;2023-08-20T06:30:37;19.70;99.90
1948;DHT22;974;52.400;9.818;2023-08-20T06:33:03;19.80;99.90
1948;DHT22;974;52.400;9.818;2023-08-20T06:35:29;19.80;99.90
1948;DHT22;974;52.400;9.818;2023-08-20T06:37:54;19.90;99.90
1948;DHT22;974;52.400;9.818;2023-08-20T06:40:20;19.90;99.90
1948;DHT22;974;52.400;9.818;2023-08-20T06:42:45;20.00;99.90
1948;DHT22;974;52.400;9.818;2023-08-20T06:45:11;20.00;99.90
1948;DHT22;974;52.400;9.818;2023-08-20T06:47:36;20.00;99.90
1948;DHT22;974;52.400;9.818;2023-08-20T06:50:02;20.00;99.90
1948;DHT22;974;52.400;9.818;2023-08-20T06:52:27;20.00;99.90
1948;DHT22;974;52.400;9.818;2023-08-20T06:54:53;20.00;99.90
1948;DHT22;974;52.400;9.818;2023-08-20T06:57:18;20.00;99.90
1948;DHT22;974;52.400;9.818;2023-08-20T06:59:44;20.00;99.90
1948;DHT22;974;52.400;9.818;2023-08-20T07:02:10;20.10;99.90
1948;DHT22;974;52.400;9.818;2023-08-20T07:04:36;20.10;99.90
1948;DHT22;974;52.400;9.818;2023-08-20T07:07:01;20.10;99.90
1948;DHT22;974;52.400;9.818;2023-08-20T07:09:27;20.10;99.90
1948;DHT22;974;52.400;9.818;2023-08-20T07:11:52;20.10;99.90
1948;DHT22;974;52.400;9.818;2023-08-20T07:14:18;20.10;99.90
1948;DHT22;974;52.400;9.818;2023-08-20T07:16:43;20.20;99.90
1948;DHT22;974;52.400;9.818;2023-08-20T07:19:09;20.20;99.90
1948;DHT22;974;52.400;9.818;2023-08-20T07:21:34;20.30;99.90
1948;DHT22;974;52.400;9.818;2023-08-20T07:24:00;20.30;99.90
1948;DHT22;974;52.400;9.818;2023-08-20T07:26:26;20.40;99.90
1948;DHT22;974;52.400;9.818;2023-08-20T07:28:51;20.40;99.90
1948;DHT22;974;52.400;9.818;2023-08-20T07:31:23;20.50;99.90
1948;DHT22;974;52.400;9.818;2023-08-20T07:33:50;20.50;99.90
1948;DHT22;974;52.400;9.818;2023-08-20T07:36:17;20.60;99.90
1948;DHT22;974;52.400;9.818;2023-08-20T07:38:43;20.60;99.90
1948;DHT22;974;52.400;9.818;2023-08-20T07:41:09;20.60;99.90
1948;DHT22;974;52.400;9.818;2023-08-20T07:43:37;20.60;99.90
1948;DHT22;974;52.400;9.818;2023-08-20T07:46:03;20.70;99.90
1948;DHT22;974;52.400;9.818;2023-08-20T07:48:29;20.70;99.90
1948;DHT22;974;52.400;9.818;2023-08-20T07:50:55;20.80;99.90
1948;DHT22;974;52.400;9.818;2023-08-20T07:53:20;20.80;99.90
1948;DHT22;974;52.400;9.818;2023-08-20T07:55:46;20.80;99.90
1948;DHT22;974;52.400;9.818;2023-08-20T07:58:11;20.80;99.90
1948;DHT22;974;52.400;9.818;2023-08-20T08:00:37;20.90;99.90
1948;DHT22;974;52.400;9.818;2023-08-20T08:03:02;20.90;99.90
1948;DHT22;974;52.400;9.818;2023-08-20T08:05:28;21.00;99.90
1948;DHT22;974;52.400;9.818;2023-08-20T08:07:54;21.00;99.90
1948;DHT22;974;52.400;9.818;2023-08-20T08:10:19;21.10;99.90
1948;DHT22;974;52.400;9.818;2023-08-20T08:12:45;21.10;99.90
1948;DHT22;974;52.400;9.818;2023-08-20T08:15:11;21.20;99.90
1948;DHT22;974;52.400;9.818;2023-08-20T08:17:37;21.20;99.90
1948;DHT22;974;52.400;9.818;2023-08-20T08:20:03;21.30;99.90
1948;DHT22;974;52.400;9.818;2023-08-20T08:22:28;21.30;99.90
1948;DHT22;974;52.400;9.818;2023-08-20T08:24:54;21.30;99.90
1948;DHT22;974;52.400;9.818;2023-08-20T08:27:19;21.40;99.90
1948;DHT22;974;52.400;9.818;2023-08-20T08:29:45;21.40;99.90
1948;DHT22;974;52.400;9.818;2023-08-20T08:32:10;21.50;99.90
1948;DHT22;974;52.400;9.818;2023-08-20T08:34:36;21.50;99.90
1948;DHT22;974;52.400;9.818;2023-08-20T08:37:01;21.60;99.90
1948;DHT22;974;52.400;9.818;2023-08-20T08:39:27;21.70;99.90
1948;DHT22;974;52.400;9.818;2023-08-20T08:42:00;21.70;99.90
1948;DHT22;974;52.400;9.818;2023-08-20T08:44:28;21.70;99.90
1948;DHT22;974;52.400;9.818;2023-08-20T08:46:53;21.80;99.90
1948;DHT22;974;52.400;9.818;2023-08-20T08:49:19;21.90;99.90
1948;DHT22;974;52.400;9.818;2023-08-20T08:51:46;21.90;99.90
1948;DHT22;974;52.400;9.818;2023-08-20T08:54:13;21.90;99.90
1948;DHT22;974;52.400;9.818;2023-08-20T08:56:39;22.00;99.90
1948;DHT22;974;52.400;9.818;2023-08-20T08:59:05;22.00;99.90
1948;DHT22;974;52.400;9.818;2023-08-20T09:01:30;22.10;99.90
1948;DHT22;974;52.400;9.818;2023-08-20T09:03:56;22.10;99.90
1948;DHT22;974;52.400;9.818;2023-08-20T09:06:22;22.20;99.90
1948;DHT22;974;52.400;9.818;2023-08-20T09:08:47;22.20;99.90
1948;DHT22;974;52.400;9.818;2023-08-20T09:11:13;22.30;99.90
1948;DHT22;974;52.400;9.818;2023-08-20T09:13:40;22.30;99.90
1948;DHT22;974;52.400;9.818;2023-08-20T09:16:07;22.30;99.90
1948;DHT22;974;52.400;9.818;2023-08-20T09:18:38;22.30;99.90
1948;DHT22;974;52.400;9.818;2023-08-20T09:21:07;22.40;99.90
1948;DHT22;974;52.400;9.818;2023-08-20T09:23:34;22.50;99.90
1948;DHT22;974;52.400;9.818;2023-08-20T09:26:01;22.60;99.90
1948;DHT22;974;52.400;9.818;2023-08-20T09:28:27;22.60;99.90
1948;DHT22;974;52.400;9.818;2023-08-20T09:30:59;22.60;99.90
1948;DHT22;974;52.400;9.818;2023-08-20T09:33:28;22.70;99.90
1948;DHT22;974;52.400;9.818;2023-08-20T09:35:54;22.80;99.90
1948;DHT22;974;52.400;9.818;2023-08-20T09:38:20;22.80;99.90
1948;DHT22;974;52.400;9.818;2023-08-20T09:40:51;22.90;99.90
1948;DHT22;974;52.400;9.818;2023-08-20T09:43:19;22.90;99.90
1948;DHT22;974;52.400;9.818;2023-08-20T09:45:46;23.00;99.90
1948;DHT22;974;52.400;9.818;2023-08-20T09:48:15;23.00;99.90
1948;DHT22;974;52.400;9.818;2023-08-20T09:50:43;23.10;99.90
1948;DHT22;974;52.400;9.818;2023-08-20T09:53:22;23.20;99.90
1948;DHT22;974;52.400;9.818;2023-08-20T09:55:50;23.20;99.90
1948;DHT22;974;52.400;9.818;2023-08-20T09:58:16;23.30;99.90
1948;DHT22;974;52.400;9.818;2023-08-20T10:00:47;23.40;99.90
1948;DHT22;974;52.400;9.818;2023-08-20T10:03:13;23.40;99.90
1948;DHT22;974;52.400;9.818;2023-08-20T10:05:39;23.50;99.90
1948;DHT22;974;52.400;9.818;2023-08-20T10:08:06;23.60;99.90
1948;DHT22;974;52.400;9.818;2023-08-20T10:10:32;23.70;99.90
1948;DHT22;974;52.400;9.818;2023-08-20T10:12:59;23.70;99.90
1948;DHT22;974;52.400;9.818;2023-08-20T10:15:31;23.80;99.90
1948;DHT22;974;52.400;9.818;2023-08-20T10:18:00;23.90;99.90
1948;DHT22;974;52.400;9.818;2023-08-20T10:20:29;24.00;99.90
1948;DHT22;974;52.400;9.818;2023-08-20T10:23:00;24.10;99.90
1948;DHT22;974;52.400;9.818;2023-08-20T10:25:26;24.10;99.90
1948;DHT22;974;52.400;9.818;2023-08-20T10:27:53;24.20;99.90
1948;DHT22;974;52.400;9.818;2023-08-20T10:30:20;24.20;99.90
1948;DHT22;974;52.400;9.818;2023-08-20T10:32:50;24.30;99.90
1948;DHT22;974;52.400;9.818;2023-08-20T10:35:27;24.30;99.90
1948;DHT22;974;52.400;9.818;2023-08-20T10:38:12;24.40;99.90
1948;DHT22;974;52.400;9.818;2023-08-20T10:40:49;24.40;99.90
1948;DHT22;974;52.400;9.818;2023-08-20T10:46:08;24.40;99.90
1948;DHT22;974;52.400;9.818;2023-08-20T10:48:37;24.60;99.90
1948;DHT22;974;52.400;9.818;2023-08-20T10:51:11;24.60;99.90
1948;DHT22;974;52.400;9.818;2023-08-20T10:53:38;24.70;99.90
1948;DHT22;974;52.400;9.818;2023-08-20T10:56:09;25.00;99.90
1948;DHT22;974;52.400;9.818;2023-08-20T10:58:34;25.20;99.90
1948;DHT22;974;52.400;9.818;2023-08-20T11:01:13;25.30;99.90
1948;DHT22;974;52.400;9.818;2023-08-20T11:03:44;25.60;99.90
1948;DHT22;974;52.400;9.818;2023-08-20T11:06:10;25.80;99.90
1948;DHT22;974;52.400;9.818;2023-08-20T11:08:37;26.00;99.90
1948;DHT22;974;52.400;9.818;2023-08-20T11:11:03;26.10;99.90
1948;DHT22;974;52.400;9.818;2023-08-20T11:13:31;26.40;99.90
1948;DHT22;974;52.400;9.818;2023-08-20T11:15:57;26.80;99.90
1948;DHT22;974;52.400;9.818;2023-08-20T11:18:24;27.30;99.90
1948;DHT22;974;52.400;9.818;2023-08-20T11:20:50;28.00;99.90
1948;DHT22;974;52.400;9.818;2023-08-20T11:23:17;28.60;99.90
1948;DHT22;974;52.400;9.818;2023-08-20T11:25:45;29.40;99.90
1948;DHT22;974;52.400;9.818;2023-08-20T11:28:11;29.90;99.90
1948;DHT22;974;52.400;9.818;2023-08-20T11:30:36;30.60;99.90
1948;DHT22;974;52.400;9.818;2023-08-20T11:33:02;31.50;99.90
1948;DHT22;974;52.400;9.818;2023-08-20T11:35:28;32.10;99.90
1948;DHT22;974;52.400;9.818;2023-08-20T11:37:54;33.00;99.90
1948;DHT22;974;52.400;9.818;2023-08-20T11:40:22;34.10;99.90
1948;DHT22;974;52.400;9.818;2023-08-20T11:42:49;35.20;99.90
1948;DHT22;974;52.400;9.818;2023-08-20T11:45:15;36.30;99.90
1948;DHT22;974;52.400;9.818;2023-08-20T11:47:41;36.10;99.90
1948;DHT22;974;52.400;9.818;2023-08-20T11:50:08;35.40;99.90
1948;DHT22;974;52.400;9.818;2023-08-20T11:52:35;37.00;99.90
1948;DHT22;974;52.400;9.818;2023-08-20T11:55:01;38.40;99.90
1948;DHT22;974;52.400;9.818;2023-08-20T11:57:29;39.70;99.90
1948;DHT22;974;52.400;9.818;2023-08-20T11:59:55;40.70;98.00
1948;DHT22;974;52.400;9.818;2023-08-20T12:02:27;39.50;95.60
1948;DHT22;974;52.400;9.818;2023-08-20T12:04:56;39.60;96.40
1948;DHT22;974;52.400;9.818;2023-08-20T12:07:25;39.90;93.50
1948;DHT22;974;52.400;9.818;2023-08-20T12:09:52;39.60;91.10
1948;DHT22;974;52.400;9.818;2023-08-20T12:12:19;38.00;91.20
1948;DHT22;974;52.400;9.818;2023-08-20T12:14:48;38.30;91.20
1948;DHT22;974;52.400;9.818;2023-08-20T12:17:18;37.00;93.50
1948;DHT22;974;52.400;9.818;2023-08-20T12:19:44;37.30;91.40
1948;DHT22;974;52.400;9.818;2023-08-20T12:22:10;35.50;92.30
1948;DHT22;974;52.400;9.818;2023-08-20T12:24:35;34.20;94.00
1948;DHT22;974;52.400;9.818;2023-08-20T12:27:01;33.30;96.10
1948;DHT22;974;52.400;9.818;2023-08-20T12:29:26;34.50;95.70
1948;DHT22;974;52.400;9.818;2023-08-20T12:31:52;35.80;97.20
1948;DHT22;974;52.400;9.818;2023-08-20T12:34:17;37.30;94.80
1948;DHT22;974;52.400;9.818;2023-08-20T12:36:43;38.50;92.80
1948;DHT22;974;52.400;9.818;2023-08-20T12:39:08;37.00;92.10
1948;DHT22;974;52.400;9.818;2023-08-20T12:41:34;36.30;92.90
1948;DHT22;974;52.400;9.818;2023-08-20T12:44:04;36.00;93.10
1948;DHT22;974;52.400;9.818;2023-08-20T12:46:33;35.50;93.70
1948;DHT22;974;52.400;9.818;2023-08-20T12:49:10;35.00;93.60
1948;DHT22;974;52.400;9.818;2023-08-20T12:51:35;34.50;93.90
1948;DHT22;974;52.400;9.818;2023-08-20T12:54:01;33.90;94.80
1948;DHT22;974;52.400;9.818;2023-08-20T12:56:26;33.60;95.20
1948;DHT22;974;52.400;9.818;2023-08-20T12:58:52;33.30;95.40
1948;DHT22;974;52.400;9.818;2023-08-20T13:01:17;33.00;93.90
1948;DHT22;974;52.400;9.818;2023-08-20T13:03:44;32.80;95.70
1948;DHT22;974;52.400;9.818;2023-08-20T13:06:10;32.30;94.30
1948;DHT22;974;52.400;9.818;2023-08-20T13:08:36;32.10;95.10
1948;DHT22;974;52.400;9.818;2023-08-20T13:11:03;31.70;96.10
1948;DHT22;974;52.400;9.818;2023-08-20T13:13:31;31.50;96.00
1948;DHT22;974;52.400;9.818;2023-08-20T13:15:57;31.40;95.80
1948;DHT22;974;52.400;9.818;2023-08-20T13:18:23;31.30;97.70
1948;DHT22;974;52.400;9.818;2023-08-20T13:20:51;31.30;98.90
1948;DHT22;974;52.400;9.818;2023-08-20T13:23:17;31.30;98.30
1948;DHT22;974;52.400;9.818;2023-08-20T13:25:42;31.50;98.40
1948;DHT22;974;52.400;9.818;2023-08-20T13:28:08;31.70;99.10
1948;DHT22;974;52.400;9.818;2023-08-20T13:30:34;31.10;98.40
1948;DHT22;974;52.400;9.818;2023-08-20T13:33:00;30.70;99.90
1948;DHT22;974;52.400;9.818;2023-08-20T13:35:26;30.20;99.90
1948;DHT22;974;52.400;9.818;2023-08-20T13:37:51;30.00;99.90
1948;DHT22;974;52.400;9.818;2023-08-20T13:40:18;29.70;99.90
1948;DHT22;974;52.400;9.818;2023-08-20T13:42:44;29.40;99.90
1948;DHT22;974;52.400;9.818;2023-08-20T13:45:09;29.20;99.90
1948;DHT22;974;52.400;9.818;2023-08-20T13:47:35;29.20;99.90
1948;DHT22;974;52.400;9.818;2023-08-20T13:50:00;29.20;99.90
1948;DHT22;974;52.400;9.818;2023-08-20T13:52:26;29.10;99.90
1948;DHT22;974;52.400;9.818;2023-08-20T13:54:51;29.10;99.90
1948;DHT22;974;52.400;9.818;2023-08-20T13:57:17;28.90;99.90
1948;DHT22;974;52.400;9.818;2023-08-20T13:59:42;28.80;99.90
1948;DHT22;974;52.400;9.818;2023-08-20T14:02:08;28.70;99.90
1948;DHT22;974;52.400;9.818;2023-08-20T14:04:34;28.60;99.90
1948;DHT22;974;52.400;9.818;2023-08-20T14:07:00;28.50;99.90
1948;DHT22;974;52.400;9.818;2023-08-20T14:09:26;28.40;99.90
1948;DHT22;974;52.400;9.818;2023-08-20T14:11:51;28.30;99.90
1948;DHT22;974;52.400;9.818;2023-08-20T14:14:17;28.20;99.90
1948;DHT22;974;52.400;9.818;2023-08-20T14:16:42;28.20;99.90
1948;DHT22;974;52.400;9.818;2023-08-20T14:19:08;28.10;99.90
1948;DHT22;974;52.400;9.818;2023-08-20T14:21:33;28.00;99.90
1948;DHT22;974;52.400;9.818;2023-08-20T14:23:59;27.90;99.90
1948;DHT22;974;52.400;9.818;2023-08-20T14:26:24;27.80;99.90
1948;DHT22;974;52.400;9.818;2023-08-20T14:28:50;27.60;99.90
1948;DHT22;974;52.400;9.818;2023-08-20T14:31:15;27.50;99.90
1948;DHT22;974;52.400;9.818;2023-08-20T14:33:41;27.50;99.90
1948;DHT22;974;52.400;9.818;2023-08-20T14:36:07;27.40;99.90
1948;DHT22;974;52.400;9.818;2023-08-20T14:38:32;27.30;99.90
1948;DHT22;974;52.400;9.818;2023-08-20T14:41:02;27.30;99.90
1948;DHT22;974;52.400;9.818;2023-08-20T14:43:28;27.30;99.90
1948;DHT22;974;52.400;9.818;2023-08-20T14:45:54;27.30;99.90
1948;DHT22;974;52.400;9.818;2023-08-20T14:48:23;27.40;99.90
1948;DHT22;974;52.400;9.818;2023-08-20T14:50:50;27.40;99.90
1948;DHT22;974;52.400;9.818;2023-08-20T14:53:15;27.40;99.90
1948;DHT22;974;52.400;9.818;2023-08-20T14:55:41;27.30;99.90
1948;DHT22;974;52.400;9.818;2023-08-20T14:58:06;27.20;99.90
1948;DHT22;974;52.400;9.818;2023-08-20T15:00:33;27.10;99.90
1948;DHT22;974;52.400;9.818;2023-08-20T15:02:59;27.00;99.90
1948;DHT22;974;52.400;9.818;2023-08-20T15:05:24;27.10;99.90
1948;DHT22;974;52.400;9.818;2023-08-20T15:07:50;27.20;99.90
1948;DHT22;974;52.400;9.818;2023-08-20T15:10:15;27.10;99.90
1948;DHT22;974;52.400;9.818;2023-08-20T15:12:41;27.10;99.90
1948;DHT22;974;52.400;9.818;2023-08-20T15:15:07;27.00;99.90
1948;DHT22;974;52.400;9.818;2023-08-20T15:17:34;27.00;99.90
1948;DHT22;974;52.400;9.818;2023-08-20T15:20:01;26.90;99.90
1948;DHT22;974;52.400;9.818;2023-08-20T15:22:26;26.90;99.90
1948;DHT22;974;52.400;9.818;2023-08-20T15:24:52;26.90;99.90
1948;DHT22;974;52.400;9.818;2023-08-20T15:27:18;26.80;99.90
1948;DHT22;974;52.400;9.818;2023-08-20T15:29:44;26.70;99.90
1948;DHT22;974;52.400;9.818;2023-08-20T15:32:10;26.60;99.90
1948;DHT22;974;52.400;9.818;2023-08-20T15:34:36;26.60;99.90
1948;DHT22;974;52.400;9.818;2023-08-20T15:37:01;26.60;99.90
1948;DHT22;974;52.400;9.818;2023-08-20T15:39:27;26.60;99.90
1948;DHT22;974;52.400;9.818;2023-08-20T15:41:52;26.60;99.90
1948;DHT22;974;52.400;9.818;2023-08-20T15:44:18;26.70;99.90
1948;DHT22;974;52.400;9.818;2023-08-20T15:46:43;26.70;99.90
1948;DHT22;974;52.400;9.818;2023-08-20T15:49:09;26.70;99.90
1948;DHT22;974;52.400;9.818;2023-08-20T15:51:34;26.70;99.90
1948;DHT22;974;52.400;9.818;2023-08-20T15:54:01;26.70;99.90
1948;DHT22;974;52.400;9.818;2023-08-20T15:56:28;26.60;99.90
1948;DHT22;974;52.400;9.818;2023-08-20T15:58:53;26.60;99.90
1948;DHT22;974;52.400;9.818;2023-08-20T16:01:19;26.50;99.90
1948;DHT22;974;52.400;9.818;2023-08-20T16:03:44;26.50;99.90
1948;DHT22;974;52.400;9.818;2023-08-20T16:06:10;26.50;99.90
1948;DHT22;974;52.400;9.818;2023-08-20T16:08:36;26.40;99.90
1948;DHT22;974;52.400;9.818;2023-08-20T16:11:02;26.40;99.90
1948;DHT22;974;52.400;9.818;2023-08-20T16:13:29;26.40;99.90
1948;DHT22;974;52.400;9.818;2023-08-20T16:15:54;26.40;99.90
1948;DHT22;974;52.400;9.818;2023-08-20T16:18:20;26.50;99.90